La Paz, Honduras
Current Conditions -  °F | °C
As of 10:00 AM on Monday 22 Dec 2014 (Local Time) from MHTG Reporting Station
Few Clouds Few Clouds  
Wind Chill: 77°   Ceiling: Unl
Heat Index: 79°   Visibility: 6mi
Dew Point: 61°   Wind: 5mph
Humidity: 57%   Direction: 330°NNW
Pressure: 30.09"   Gusts: NA
Location:  14.2°N, 87.4°W
Report Text: MHTG 221600Z 33004KT 9999 FEW028 25/16 Q1019 A3009 NOSIG
Loading
Personal Weather Stations






























Interactive Weather Map New forecast layout! Learn more

10-Day Weather Forecast

Advertisements
Track Severe Weather on mobile